createdAt,value
2023-01-28T00:02:55.639Z,2.53
2023-01-28T00:07:58.072Z,2.60
2023-01-28T00:12:59.942Z,2.72
2023-01-28T00:18:01.833Z,2.40
2023-01-28T00:23:03.679Z,2.60
2023-01-28T00:28:05.426Z,2.08
2023-01-28T00:33:07.215Z,2.30
2023-01-28T00:38:09.579Z,2.58
2023-01-28T00:43:11.258Z,2.60
2023-01-28T00:48:13.134Z,2.20
2023-01-28T00:53:15.368Z,2.00
2023-01-28T00:58:17.086Z,2.30
2023-01-28T01:03:19.723Z,2.20
2023-01-28T01:08:34.895Z,2.05
2023-01-28T01:13:37.421Z,2.00
2023-01-28T01:18:41.962Z,2.50
2023-01-28T01:23:44.731Z,2.50
2023-01-28T01:28:46.787Z,2.13
2023-01-28T01:33:50.705Z,2.30
2023-01-28T01:38:55.840Z,2.50
2023-01-28T01:44:03.313Z,2.42
2023-01-28T01:49:13.852Z,2.60
2023-01-28T01:54:18.182Z,2.65
2023-01-28T01:59:25.682Z,2.78
2023-01-28T02:04:31.122Z,2.70
2023-01-28T02:09:36.132Z,2.70
2023-01-28T02:14:45.456Z,2.85
2023-01-28T02:20:03.705Z,2.83
2023-01-28T02:25:17.529Z,2.65
2023-01-28T02:30:48.296Z,2.58
2023-01-28T02:35:53.697Z,2.35
2023-01-28T02:41:06.606Z,2.35
2023-01-28T02:46:39.182Z,2.78
2023-01-28T02:52:14.723Z,3.00
2023-01-28T02:57:34.227Z,3.40
2023-01-28T03:02:43.445Z,2.67
2023-01-28T03:07:45.305Z,3.03
2023-01-28T03:13:10.494Z,3.10
2023-01-28T03:18:51.187Z,2.63
2023-01-28T03:24:24.249Z,2.85
2023-01-28T03:29:47.722Z,2.97
2023-01-28T03:35:08.782Z,2.88
2023-01-28T03:40:11.715Z,3.17
2023-01-28T03:45:14.961Z,2.67
2023-01-28T03:50:17.036Z,3.00
2023-01-28T03:55:19.353Z,2.60
2023-01-28T04:00:22.048Z,3.15
2023-01-28T04:05:23.963Z,2.47
2023-01-28T04:10:25.798Z,2.65
2023-01-28T04:15:27.564Z,2.40
2023-01-28T04:20:29.779Z,2.55
2023-01-28T04:25:33.859Z,2.70
2023-01-28T04:30:40.171Z,2.35
2023-01-28T04:35:42.219Z,2.70
2023-01-28T04:40:44.059Z,2.38
2023-01-28T04:45:47.236Z,2.13
2023-01-28T04:50:48.960Z,2.60
2023-01-28T04:55:50.819Z,2.78
2023-01-28T05:00:59.985Z,2.00
2023-01-28T05:06:01.941Z,2.60
2023-01-28T05:11:03.931Z,2.30
2023-01-28T05:16:06.161Z,2.38
2023-01-28T05:21:08.084Z,2.80
2023-01-28T05:26:10.317Z,2.55
2023-01-28T05:31:12.461Z,3.22
2023-01-28T05:36:14.239Z,2.70
2023-01-28T05:41:16.024Z,2.92
2023-01-28T05:46:17.742Z,2.47
2023-01-28T05:51:19.508Z,3.03
2023-01-28T05:56:21.308Z,2.92
2023-01-28T06:01:23.162Z,2.70
2023-01-28T06:06:24.963Z,3.03
2023-01-28T06:11:27.439Z,2.50
2023-01-28T06:16:29.592Z,3.25
2023-01-28T06:21:31.441Z,3.20
2023-01-28T06:26:33.215Z,2.55
2023-01-28T06:31:37.456Z,2.92
2023-01-28T06:36:39.172Z,2.72
2023-01-28T06:41:40.929Z,3.28
2023-01-28T06:46:43.032Z,2.80
2023-01-28T06:51:44.867Z,3.05
2023-01-28T06:56:46.849Z,2.90
2023-01-28T07:01:48.659Z,2.60
2023-01-28T07:06:50.454Z,2.80
2023-01-28T07:11:52.306Z,2.65
2023-01-28T07:16:54.191Z,2.65
2023-01-28T07:21:58.270Z,2.55
2023-01-28T07:26:59.991Z,2.85
2023-01-28T07:32:02.185Z,2.50
2023-01-28T07:37:03.996Z,2.47
2023-01-28T07:42:05.853Z,2.28
2023-01-28T07:47:07.630Z,2.10
2023-01-28T07:52:09.725Z,1.88
2023-01-28T07:57:11.531Z,1.98
2023-01-28T08:02:13.535Z,1.80
2023-01-28T08:07:15.386Z,1.95
2023-01-28T08:12:17.194Z,1.83
2023-01-28T08:17:19.153Z,2.67
2023-01-28T08:22:27.830Z,2.90
2023-01-28T08:27:29.825Z,2.72
2023-01-28T08:32:34.459Z,2.33
2023-01-28T08:37:36.206Z,2.45
2023-01-28T08:42:37.929Z,3.30
2023-01-28T08:48:00.861Z,3.13
2023-01-28T08:53:11.000Z,2.33
2023-01-28T08:58:18.252Z,2.65
2023-01-28T09:03:22.420Z,2.33
2023-01-28T09:08:25.345Z,2.13
2023-01-28T09:13:27.457Z,1.98
2023-01-28T09:18:29.213Z,2.00
2023-01-28T09:23:30.932Z,2.35
2023-01-28T09:28:33.469Z,2.10
2023-01-28T09:33:36.756Z,1.90
2023-01-28T09:38:38.612Z,1.75
2023-01-28T09:44:06.664Z,2.08
2023-01-28T09:49:33.789Z,1.80
2023-01-28T09:54:40.993Z,2.60
2023-01-28T09:59:42.787Z,2.17
2023-01-28T10:04:59.870Z,2.35
2023-01-28T10:10:16.507Z,3.08
2023-01-28T10:15:47.788Z,2.85
2023-01-28T10:20:57.686Z,3.40
2023-01-28T10:26:01.966Z,3.20
2023-01-28T10:31:09.090Z,3.63
2023-01-28T10:36:11.125Z,3.33
2023-01-28T10:41:19.894Z,3.60
2023-01-28T10:46:33.807Z,3.45
2023-01-28T10:51:41.180Z,2.92
2023-01-28T10:56:43.872Z,3.10
2023-01-28T11:01:49.464Z,2.63
2023-01-28T11:06:58.412Z,3.40
2023-01-28T11:12:12.020Z,3.35
2023-01-28T11:17:17.783Z,3.25
2023-01-28T11:22:42.015Z,4.90
2023-01-28T11:27:49.046Z,2.85
2023-01-28T11:33:18.244Z,3.03
2023-01-28T11:38:23.354Z,3.05
2023-01-28T11:43:31.051Z,3.35
2023-01-28T11:48:38.610Z,3.40
2023-01-28T11:54:10.114Z,3.70
2023-01-28T11:59:33.607Z,3.33
2023-01-28T12:05:00.304Z,3.20
2023-01-28T12:10:36.686Z,3.05
2023-01-28T12:16:03.614Z,3.25
2023-01-28T12:21:12.801Z,3.95
2023-01-28T12:26:19.561Z,4.22
2023-01-28T12:31:29.956Z,3.80
2023-01-28T12:37:06.715Z,4.15
2023-01-28T12:42:18.442Z,3.88
2023-01-28T12:47:26.825Z,4.07
2023-01-28T12:52:47.367Z,3.80
2023-01-28T12:57:51.543Z,3.63
2023-01-28T13:03:38.723Z,4.22
2023-01-28T13:08:40.450Z,3.83
2023-01-28T13:13:44.992Z,3.95
2023-01-28T13:18:47.036Z,3.85
2023-01-28T13:23:52.048Z,3.88
2023-01-28T13:29:06.531Z,3.33
2023-01-28T13:34:36.202Z,3.38
2023-01-28T13:39:38.277Z,4.15
2023-01-28T13:44:40.121Z,4.05
2023-01-28T13:49:44.709Z,4.45
2023-01-28T13:55:05.878Z,4.68
2023-01-28T14:00:13.225Z,4.03
2023-01-28T14:05:32.112Z,4.43
2023-01-28T14:10:58.669Z,3.80
2023-01-28T14:16:25.305Z,4.45
2023-01-28T14:21:31.137Z,4.15
2023-01-28T14:27:07.026Z,4.68
2023-01-28T14:32:16.202Z,3.83
2023-01-28T14:37:22.553Z,4.03
2023-01-28T14:42:27.309Z,3.30
2023-01-28T14:47:44.735Z,5.30
2023-01-28T14:53:00.147Z,5.25
2023-01-28T14:58:19.263Z,4.65
2023-01-28T15:03:25.932Z,4.22
2023-01-28T15:08:28.198Z,4.82
2023-01-28T15:13:36.322Z,5.32
2023-01-28T15:18:42.828Z,5.28
2023-01-28T15:23:44.640Z,4.90
2023-01-28T15:28:47.732Z,4.47
2023-01-28T15:34:11.335Z,4.35
2023-01-28T15:39:24.358Z,8.40
2023-01-28T15:44:33.443Z,5.05
2023-01-28T15:49:38.059Z,4.70
2023-01-28T15:54:43.883Z,5.40
2023-01-28T15:59:47.445Z,4.10
2023-01-28T16:05:03.762Z,4.57
2023-01-28T16:10:05.929Z,4.32
2023-01-28T16:15:19.780Z,3.97
2023-01-28T16:20:27.370Z,4.15
2023-01-28T16:25:36.926Z,4.60
2023-01-28T16:30:38.691Z,5.93
2023-01-28T16:36:03.559Z,4.78
2023-01-28T16:41:02.733Z,5.75
2023-01-28T16:46:09.177Z,6.22
2023-01-28T16:51:18.180Z,6.28
2023-01-28T17:01:48.833Z,5.60
2023-01-28T17:06:52.621Z,8.50
2023-01-28T17:11:54.833Z,5.35
2023-01-28T17:16:56.655Z,4.70
2023-01-28T17:21:59.387Z,4.70
2023-01-28T17:27:01.159Z,4.60
2023-01-28T17:32:02.947Z,7.80
2023-01-28T17:37:05.171Z,4.78
2023-01-28T17:42:06.920Z,5.10
2023-01-28T17:47:08.889Z,4.55
2023-01-28T17:52:12.860Z,4.60
2023-01-28T17:57:14.546Z,4.85
2023-01-28T18:02:16.469Z,3.00
2023-01-28T18:07:18.301Z,4.07
2023-01-28T18:12:20.087Z,2.92
2023-01-28T18:17:27.848Z,3.58
2023-01-28T18:22:29.793Z,4.40
2023-01-28T18:27:31.479Z,4.05
2023-01-28T18:32:34.381Z,7.47
2023-01-28T18:37:36.275Z,4.00
2023-01-28T18:42:38.146Z,4.32
2023-01-28T18:47:40.078Z,4.32
2023-01-28T18:52:41.906Z,4.05
2023-01-28T18:57:43.749Z,6.03
2023-01-28T19:02:46.494Z,4.45
2023-01-28T19:07:48.238Z,4.25
2023-01-28T19:12:49.938Z,5.15
2023-01-28T19:17:51.784Z,7.00
2023-01-28T19:22:53.738Z,4.20
2023-01-28T19:27:55.518Z,4.28
2023-01-28T19:32:57.241Z,5.60
2023-01-28T19:37:59.035Z,4.70
2023-01-28T19:43:00.761Z,4.53
2023-01-28T19:48:02.526Z,5.45
2023-01-28T19:53:04.242Z,4.50
2023-01-28T19:58:07.194Z,5.22
2023-01-28T20:03:08.913Z,5.43
2023-01-28T20:08:10.903Z,6.00
2023-01-28T20:13:12.630Z,5.60
2023-01-28T20:18:14.471Z,5.47
2023-01-28T20:23:16.171Z,5.03
2023-01-28T20:28:18.129Z,4.45
2023-01-28T20:33:20.983Z,4.47
2023-01-28T20:38:22.725Z,3.22
2023-01-28T20:43:24.576Z,3.97
2023-01-28T20:48:27.498Z,4.07
2023-01-28T20:53:29.243Z,3.60
2023-01-28T20:58:31.825Z,3.80
2023-01-28T21:03:34.161Z,3.75
2023-01-28T21:08:36.141Z,3.67
2023-01-28T21:13:38.096Z,3.20
2023-01-28T21:18:39.842Z,2.70
2023-01-28T21:23:41.903Z,2.63
2023-01-28T21:28:44.774Z,2.80
2023-01-28T21:33:50.666Z,2.80
2023-01-28T21:38:53.716Z,2.40
2023-01-28T21:43:57.483Z,2.80
2023-01-28T21:49:05.317Z,3.00
2023-01-28T21:54:10.307Z,3.10
2023-01-28T21:59:28.373Z,3.30
2023-01-28T22:04:38.498Z,2.83
2023-01-28T22:09:40.901Z,2.88
2023-01-28T22:14:43.783Z,2.85
2023-01-28T22:19:48.089Z,3.13
2023-01-28T22:24:50.299Z,3.70
2023-01-28T22:29:53.694Z,3.38
2023-01-28T22:34:55.384Z,2.90
2023-01-28T22:39:57.227Z,3.08
2023-01-28T22:44:59.110Z,3.38
2023-01-28T22:50:01.928Z,3.42
2023-01-28T22:55:04.764Z,3.53
2023-01-28T23:00:13.710Z,3.63
2023-01-28T23:05:15.873Z,3.60
2023-01-28T23:10:18.409Z,4.00
2023-01-28T23:15:41.337Z,3.85
2023-01-28T23:21:01.626Z,3.40
2023-01-28T23:26:04.645Z,3.70
2023-01-28T23:31:07.442Z,4.22
2023-01-28T23:36:09.232Z,4.53
2023-01-28T23:41:10.921Z,4.78
2023-01-28T23:46:12.643Z,4.60
2023-01-28T23:51:14.390Z,4.38
2023-01-28T23:56:16.079Z,4.22
